首页
METAR-TAF:

METAR-TAF

机场 :

Cahokia / 圣路易斯, 伊利诺伊州, 美国

纬度: 38-34-15N, 经度: 090-09-22W, 海拔: 126米

当前天气观测

该预报发布于1小时和1分钟前的16:53 UTC
风速7节,风向东转东北,有时为15节阵风
温度 8°C
湿度 61%
气压 1024 hPa
能見度: 16.1公里
多云层高于3300英尺

METAR: KCPS 241653Z 07007G15KT 10SM BKN033 08/01 A3024 RMK AO2 SLP240 T00830006

时间: 12:54 (17:54 UTC)

预报

该预报发布于16分钟前的17:38 UTC
预报有效从24日的 18点(UTC)到 25日的 18点(UTC)
风速8节,风向东转东北
能見度: 10公里
多云层高于3500英尺
从 25日的 0500点(UTC)
风速7节,风向东北
能見度: 10公里
多云层高于2700英尺

TAF: KCPS 241738Z 2418/2518 06008KT P6SM BKN035 FM250500 05007KT P6SM BKN027

超过4000个机场的气象观测和天气预报(METAR&TAF报告)。

可查询的气象台以黄色和红色小点在地图上表示。

将鼠标移到小点上方,可查看气象台名称。

然后点击查看天气观测和预报。

如需切换地图:点击带黑十字的绿色按钮放大地图;点击带横线的绿色按钮缩小地图;或者点击绿色箭头查看邻近地区的地图。


METAR-TAF: